sensor_id;sensor_type;location;lat;lon;timestamp;temperature;humidity
25440;DHT22;13365;52.208;5.488;2022-09-09T00:00:55;20.80;94.70
25440;DHT22;13365;52.208;5.488;2022-09-09T00:03:27;20.80;94.80
25440;DHT22;13365;52.208;5.488;2022-09-09T00:06:06;20.80;94.80
25440;DHT22;13365;52.208;5.488;2022-09-09T00:11:33;20.90;94.60
25440;DHT22;13365;52.208;5.488;2022-09-09T00:14:03;20.80;94.50
25440;DHT22;13365;52.208;5.488;2022-09-09T00:16:36;20.80;94.60
25440;DHT22;13365;52.208;5.488;2022-09-09T00:19:09;20.80;94.50
25440;DHT22;13365;52.208;5.488;2022-09-09T00:21:56;20.80;94.40
25440;DHT22;13365;52.208;5.488;2022-09-09T00:24:28;20.80;94.50
25440;DHT22;13365;52.208;5.488;2022-09-09T00:27:19;20.80;94.30
25440;DHT22;13365;52.208;5.488;2022-09-09T00:32:39;20.80;94.40
25440;DHT22;13365;52.208;5.488;2022-09-09T00:35:14;20.90;94.40
25440;DHT22;13365;52.208;5.488;2022-09-09T00:37:42;20.90;94.40
25440;DHT22;13365;52.208;5.488;2022-09-09T00:40:34;20.90;94.30
25440;DHT22;13365;52.208;5.488;2022-09-09T00:43:08;20.90;94.20
25440;DHT22;13365;52.208;5.488;2022-09-09T00:48:43;20.80;94.50
25440;DHT22;13365;52.208;5.488;2022-09-09T00:51:25;20.70;94.60
25440;DHT22;13365;52.208;5.488;2022-09-09T00:56:47;20.50;94.90
25440;DHT22;13365;52.208;5.488;2022-09-09T00:59:28;20.60;95.20
25440;DHT22;13365;52.208;5.488;2022-09-09T01:01:56;20.60;95.10
25440;DHT22;13365;52.208;5.488;2022-09-09T01:04:34;20.60;95.00
25440;DHT22;13365;52.208;5.488;2022-09-09T01:07:11;20.70;94.80
25440;DHT22;13365;52.208;5.488;2022-09-09T01:12:23;20.60;94.90
25440;DHT22;13365;52.208;5.488;2022-09-09T01:14:54;20.50;95.00
25440;DHT22;13365;52.208;5.488;2022-09-09T01:17:26;20.50;95.20
25440;DHT22;13365;52.208;5.488;2022-09-09T01:20:10;20.40;95.40
25440;DHT22;13365;52.208;5.488;2022-09-09T01:23:20;20.40;95.30
25440;DHT22;13365;52.208;5.488;2022-09-09T01:28:50;20.40;95.30
25440;DHT22;13365;52.208;5.488;2022-09-09T01:31:23;20.40;95.50
25440;DHT22;13365;52.208;5.488;2022-09-09T01:33:51;20.30;95.30
25440;DHT22;13365;52.208;5.488;2022-09-09T01:36:34;20.20;95.30
25440;DHT22;13365;52.208;5.488;2022-09-09T01:39:05;20.30;95.40
25440;DHT22;13365;52.208;5.488;2022-09-09T01:41:31;20.40;95.10
25440;DHT22;13365;52.208;5.488;2022-09-09T01:43:57;20.30;95.10
25440;DHT22;13365;52.208;5.488;2022-09-09T01:46:23;20.40;94.90
25440;DHT22;13365;52.208;5.488;2022-09-09T01:48:51;20.30;94.90
25440;DHT22;13365;52.208;5.488;2022-09-09T01:51:18;20.30;94.80
25440;DHT22;13365;52.208;5.488;2022-09-09T01:53:45;20.20;94.70
25440;DHT22;13365;52.208;5.488;2022-09-09T01:58:57;20.20;94.80
25440;DHT22;13365;52.208;5.488;2022-09-09T02:03:56;20.20;94.80
25440;DHT22;13365;52.208;5.488;2022-09-09T02:06:30;20.10;94.70
25440;DHT22;13365;52.208;5.488;2022-09-09T02:09:00;20.20;94.70
25440;DHT22;13365;52.208;5.488;2022-09-09T02:11:28;20.20;94.60
25440;DHT22;13365;52.208;5.488;2022-09-09T02:14:01;20.20;94.60
25440;DHT22;13365;52.208;5.488;2022-09-09T02:16:49;20.10;94.60
25440;DHT22;13365;52.208;5.488;2022-09-09T02:19:28;20.10;94.60
25440;DHT22;13365;52.208;5.488;2022-09-09T02:21:57;20.20;94.70
25440;DHT22;13365;52.208;5.488;2022-09-09T02:24:25;20.10;94.60
25440;DHT22;13365;52.208;5.488;2022-09-09T02:26:53;20.10;94.50
25440;DHT22;13365;52.208;5.488;2022-09-09T02:29:26;20.10;94.50
25440;DHT22;13365;52.208;5.488;2022-09-09T02:31:56;20.10;94.50
25440;DHT22;13365;52.208;5.488;2022-09-09T02:34:23;20.10;94.40
25440;DHT22;13365;52.208;5.488;2022-09-09T02:36:50;20.00;94.30
25440;DHT22;13365;52.208;5.488;2022-09-09T02:39:18;19.90;94.50
25440;DHT22;13365;52.208;5.488;2022-09-09T02:41:43;20.00;94.60
25440;DHT22;13365;52.208;5.488;2022-09-09T02:44:14;20.00;94.50
25440;DHT22;13365;52.208;5.488;2022-09-09T02:47:14;20.00;94.60
25440;DHT22;13365;52.208;5.488;2022-09-09T02:52:52;20.00;94.70
25440;DHT22;13365;52.208;5.488;2022-09-09T02:55:37;20.00;94.90
25440;DHT22;13365;52.208;5.488;2022-09-09T02:58:05;20.00;94.80
25440;DHT22;13365;52.208;5.488;2022-09-09T03:00:32;20.00;94.70
25440;DHT22;13365;52.208;5.488;2022-09-09T03:02:59;20.00;94.60
25440;DHT22;13365;52.208;5.488;2022-09-09T03:05:24;20.00;94.60
25440;DHT22;13365;52.208;5.488;2022-09-09T03:07:51;19.90;94.70
25440;DHT22;13365;52.208;5.488;2022-09-09T03:10:17;19.90;94.70
25440;DHT22;13365;52.208;5.488;2022-09-09T03:12:43;19.90;94.70
25440;DHT22;13365;52.208;5.488;2022-09-09T03:15:09;20.00;94.40
25440;DHT22;13365;52.208;5.488;2022-09-09T03:17:35;20.00;94.50
25440;DHT22;13365;52.208;5.488;2022-09-09T03:20:03;20.00;94.30
25440;DHT22;13365;52.208;5.488;2022-09-09T03:22:29;20.00;94.40
25440;DHT22;13365;52.208;5.488;2022-09-09T03:24:55;19.80;94.30
25440;DHT22;13365;52.208;5.488;2022-09-09T03:27:22;19.90;94.40
25440;DHT22;13365;52.208;5.488;2022-09-09T03:29:48;19.90;94.40
25440;DHT22;13365;52.208;5.488;2022-09-09T03:32:16;19.80;94.40
25440;DHT22;13365;52.208;5.488;2022-09-09T03:34:43;19.90;94.60
25440;DHT22;13365;52.208;5.488;2022-09-09T03:37:08;19.80;94.60
25440;DHT22;13365;52.208;5.488;2022-09-09T03:39:34;19.90;94.60
25440;DHT22;13365;52.208;5.488;2022-09-09T03:41:59;19.90;94.60
25440;DHT22;13365;52.208;5.488;2022-09-09T03:44:25;19.80;94.60
25440;DHT22;13365;52.208;5.488;2022-09-09T03:46:51;19.80;94.50
25440;DHT22;13365;52.208;5.488;2022-09-09T03:49:16;19.80;94.70
25440;DHT22;13365;52.208;5.488;2022-09-09T03:51:42;19.80;94.40
25440;DHT22;13365;52.208;5.488;2022-09-09T03:54:08;19.80;94.50
25440;DHT22;13365;52.208;5.488;2022-09-09T03:56:36;19.70;94.70
25440;DHT22;13365;52.208;5.488;2022-09-09T03:59:02;19.60;94.90
25440;DHT22;13365;52.208;5.488;2022-09-09T04:01:28;19.60;95.00
25440;DHT22;13365;52.208;5.488;2022-09-09T04:03:54;19.60;95.10
25440;DHT22;13365;52.208;5.488;2022-09-09T04:06:23;19.60;95.10
25440;DHT22;13365;52.208;5.488;2022-09-09T04:08:49;19.60;95.40
25440;DHT22;13365;52.208;5.488;2022-09-09T04:11:15;19.60;95.30
25440;DHT22;13365;52.208;5.488;2022-09-09T04:13:41;19.60;95.30
25440;DHT22;13365;52.208;5.488;2022-09-09T04:16:09;19.50;95.30
25440;DHT22;13365;52.208;5.488;2022-09-09T04:18:35;19.60;95.30
25440;DHT22;13365;52.208;5.488;2022-09-09T04:21:01;19.60;95.20
25440;DHT22;13365;52.208;5.488;2022-09-09T04:23:29;19.50;95.40
25440;DHT22;13365;52.208;5.488;2022-09-09T04:25:56;19.60;95.20
25440;DHT22;13365;52.208;5.488;2022-09-09T04:28:24;19.50;95.30
25440;DHT22;13365;52.208;5.488;2022-09-09T04:30:50;19.60;95.30
25440;DHT22;13365;52.208;5.488;2022-09-09T04:33:16;19.40;95.40
25440;DHT22;13365;52.208;5.488;2022-09-09T04:35:49;19.40;95.60
25440;DHT22;13365;52.208;5.488;2022-09-09T04:38:16;19.40;95.60
25440;DHT22;13365;52.208;5.488;2022-09-09T04:40:49;19.40;95.50
25440;DHT22;13365;52.208;5.488;2022-09-09T04:43:16;19.40;95.60
25440;DHT22;13365;52.208;5.488;2022-09-09T04:45:44;19.30;95.80
25440;DHT22;13365;52.208;5.488;2022-09-09T04:48:12;19.40;95.80
25440;DHT22;13365;52.208;5.488;2022-09-09T04:50:37;19.40;95.90
25440;DHT22;13365;52.208;5.488;2022-09-09T04:53:04;19.40;96.00
25440;DHT22;13365;52.208;5.488;2022-09-09T04:55:37;19.40;96.20
25440;DHT22;13365;52.208;5.488;2022-09-09T04:58:07;19.50;96.20
25440;DHT22;13365;52.208;5.488;2022-09-09T05:00:34;19.70;96.00
25440;DHT22;13365;52.208;5.488;2022-09-09T05:03:03;19.70;95.90
25440;DHT22;13365;52.208;5.488;2022-09-09T05:05:29;19.60;96.00
25440;DHT22;13365;52.208;5.488;2022-09-09T05:08:01;19.50;96.20
25440;DHT22;13365;52.208;5.488;2022-09-09T05:10:27;19.40;96.40
25440;DHT22;13365;52.208;5.488;2022-09-09T05:12:53;19.60;96.30
25440;DHT22;13365;52.208;5.488;2022-09-09T05:15:19;19.40;96.30
25440;DHT22;13365;52.208;5.488;2022-09-09T05:17:46;19.50;96.30
25440;DHT22;13365;52.208;5.488;2022-09-09T05:20:12;19.50;96.20
25440;DHT22;13365;52.208;5.488;2022-09-09T05:22:37;19.50;96.10
25440;DHT22;13365;52.208;5.488;2022-09-09T05:25:03;19.60;96.10
25440;DHT22;13365;52.208;5.488;2022-09-09T05:27:29;19.60;96.00
25440;DHT22;13365;52.208;5.488;2022-09-09T05:29:56;19.50;95.90
25440;DHT22;13365;52.208;5.488;2022-09-09T05:32:22;19.50;96.30
25440;DHT22;13365;52.208;5.488;2022-09-09T05:34:48;19.50;96.20
25440;DHT22;13365;52.208;5.488;2022-09-09T05:37:14;19.60;96.30
25440;DHT22;13365;52.208;5.488;2022-09-09T05:39:39;19.60;96.20
25440;DHT22;13365;52.208;5.488;2022-09-09T05:42:05;19.70;96.10
25440;DHT22;13365;52.208;5.488;2022-09-09T05:44:31;19.50;96.20
25440;DHT22;13365;52.208;5.488;2022-09-09T05:46:57;19.40;96.60
25440;DHT22;13365;52.208;5.488;2022-09-09T05:49:23;19.30;96.70
25440;DHT22;13365;52.208;5.488;2022-09-09T05:51:49;19.30;96.90
25440;DHT22;13365;52.208;5.488;2022-09-09T05:54:16;19.50;96.80
25440;DHT22;13365;52.208;5.488;2022-09-09T05:56:44;19.50;96.60
25440;DHT22;13365;52.208;5.488;2022-09-09T05:59:10;19.60;96.60
25440;DHT22;13365;52.208;5.488;2022-09-09T06:01:37;19.70;96.90
25440;DHT22;13365;52.208;5.488;2022-09-09T06:04:06;19.80;96.30
25440;DHT22;13365;52.208;5.488;2022-09-09T06:06:33;19.80;96.30
25440;DHT22;13365;52.208;5.488;2022-09-09T06:09:03;19.90;96.30
25440;DHT22;13365;52.208;5.488;2022-09-09T06:11:32;19.90;96.40
25440;DHT22;13365;52.208;5.488;2022-09-09T06:13:58;19.90;96.40
25440;DHT22;13365;52.208;5.488;2022-09-09T06:16:26;19.90;96.60
25440;DHT22;13365;52.208;5.488;2022-09-09T06:18:53;19.90;96.70
25440;DHT22;13365;52.208;5.488;2022-09-09T06:21:27;20.00;96.60
25440;DHT22;13365;52.208;5.488;2022-09-09T06:23:53;20.10;96.50
25440;DHT22;13365;52.208;5.488;2022-09-09T06:26:21;20.20;96.50
25440;DHT22;13365;52.208;5.488;2022-09-09T06:28:49;20.10;96.60
25440;DHT22;13365;52.208;5.488;2022-09-09T06:31:16;20.10;96.60
25440;DHT22;13365;52.208;5.488;2022-09-09T06:33:43;20.10;96.80
25440;DHT22;13365;52.208;5.488;2022-09-09T06:36:29;20.10;97.00
25440;DHT22;13365;52.208;5.488;2022-09-09T06:38:55;20.20;96.90
25440;DHT22;13365;52.208;5.488;2022-09-09T06:41:23;20.30;96.90
25440;DHT22;13365;52.208;5.488;2022-09-09T06:43:50;20.30;97.00
25440;DHT22;13365;52.208;5.488;2022-09-09T06:46:20;20.40;97.00
25440;DHT22;13365;52.208;5.488;2022-09-09T06:48:49;20.50;96.80
25440;DHT22;13365;52.208;5.488;2022-09-09T06:51:16;20.50;96.90
25440;DHT22;13365;52.208;5.488;2022-09-09T06:53:44;20.40;97.50
25440;DHT22;13365;52.208;5.488;2022-09-09T06:58:36;20.70;98.00
25440;DHT22;13365;52.208;5.488;2022-09-09T07:01:06;20.60;97.90
25440;DHT22;13365;52.208;5.488;2022-09-09T07:03:32;20.60;98.00
25440;DHT22;13365;52.208;5.488;2022-09-09T07:05:59;20.80;98.10
25440;DHT22;13365;52.208;5.488;2022-09-09T07:08:25;21.00;98.40
25440;DHT22;13365;52.208;5.488;2022-09-09T07:10:52;21.20;98.20
25440;DHT22;13365;52.208;5.488;2022-09-09T07:13:25;21.10;98.10
25440;DHT22;13365;52.208;5.488;2022-09-09T07:15:51;21.20;97.70
25440;DHT22;13365;52.208;5.488;2022-09-09T07:18:18;21.20;97.50
25440;DHT22;13365;52.208;5.488;2022-09-09T07:20:53;21.30;97.40
25440;DHT22;13365;52.208;5.488;2022-09-09T07:23:20;21.40;96.80
25440;DHT22;13365;52.208;5.488;2022-09-09T07:25:46;21.40;96.80
25440;DHT22;13365;52.208;5.488;2022-09-09T07:28:13;21.50;96.40
25440;DHT22;13365;52.208;5.488;2022-09-09T07:30:38;21.50;96.10
25440;DHT22;13365;52.208;5.488;2022-09-09T07:33:05;21.50;96.70
25440;DHT22;13365;52.208;5.488;2022-09-09T07:35:31;21.50;96.50
25440;DHT22;13365;52.208;5.488;2022-09-09T07:37:56;21.50;96.00
25440;DHT22;13365;52.208;5.488;2022-09-09T07:40:22;21.40;96.10
25440;DHT22;13365;52.208;5.488;2022-09-09T07:42:48;21.50;96.30
25440;DHT22;13365;52.208;5.488;2022-09-09T07:45:13;21.60;96.10
25440;DHT22;13365;52.208;5.488;2022-09-09T07:47:40;21.50;96.30
25440;DHT22;13365;52.208;5.488;2022-09-09T07:50:08;21.50;96.10
25440;DHT22;13365;52.208;5.488;2022-09-09T07:52:35;21.40;96.50
25440;DHT22;13365;52.208;5.488;2022-09-09T07:55:00;21.20;96.70
25440;DHT22;13365;52.208;5.488;2022-09-09T07:57:28;21.40;96.70
25440;DHT22;13365;52.208;5.488;2022-09-09T07:59:56;21.50;96.50
25440;DHT22;13365;52.208;5.488;2022-09-09T08:02:22;21.50;96.30
25440;DHT22;13365;52.208;5.488;2022-09-09T08:04:48;21.50;96.50
25440;DHT22;13365;52.208;5.488;2022-09-09T08:07:14;21.60;96.30
25440;DHT22;13365;52.208;5.488;2022-09-09T08:09:39;21.80;96.10
25440;DHT22;13365;52.208;5.488;2022-09-09T08:12:05;21.90;95.90
25440;DHT22;13365;52.208;5.488;2022-09-09T08:14:32;22.00;95.70
25440;DHT22;13365;52.208;5.488;2022-09-09T08:16:57;22.00;94.90
25440;DHT22;13365;52.208;5.488;2022-09-09T08:19:23;21.90;95.30
25440;DHT22;13365;52.208;5.488;2022-09-09T08:21:49;21.90;95.30
25440;DHT22;13365;52.208;5.488;2022-09-09T08:24:15;21.60;95.40
25440;DHT22;13365;52.208;5.488;2022-09-09T08:26:42;21.70;95.20
25440;DHT22;13365;52.208;5.488;2022-09-09T08:29:10;21.60;95.20
25440;DHT22;13365;52.208;5.488;2022-09-09T08:31:50;21.70;94.70
25440;DHT22;13365;52.208;5.488;2022-09-09T08:34:17;21.60;94.60
25440;DHT22;13365;52.208;5.488;2022-09-09T08:36:45;21.40;95.10
25440;DHT22;13365;52.208;5.488;2022-09-09T08:39:14;21.50;95.60
25440;DHT22;13365;52.208;5.488;2022-09-09T08:44:49;21.80;94.80
25440;DHT22;13365;52.208;5.488;2022-09-09T08:47:54;21.90;95.00
25440;DHT22;13365;52.208;5.488;2022-09-09T08:50:30;22.00;94.70
25440;DHT22;13365;52.208;5.488;2022-09-09T08:53:12;22.10;94.20
25440;DHT22;13365;52.208;5.488;2022-09-09T08:55:48;21.90;94.10
25440;DHT22;13365;52.208;5.488;2022-09-09T08:58:16;21.80;94.30
25440;DHT22;13365;52.208;5.488;2022-09-09T09:01:23;21.80;94.10
25440;DHT22;13365;52.208;5.488;2022-09-09T09:04:22;21.80;94.30
25440;DHT22;13365;52.208;5.488;2022-09-09T09:12:25;22.00;94.20
25440;DHT22;13365;52.208;5.488;2022-09-09T09:14:52;21.90;94.00
25440;DHT22;13365;52.208;5.488;2022-09-09T09:17:24;22.10;93.80
25440;DHT22;13365;52.208;5.488;2022-09-09T09:19:50;22.20;92.90
25440;DHT22;13365;52.208;5.488;2022-09-09T09:22:32;22.00;93.40
25440;DHT22;13365;52.208;5.488;2022-09-09T09:27:40;22.20;93.70
25440;DHT22;13365;52.208;5.488;2022-09-09T09:30:21;22.20;93.20
25440;DHT22;13365;52.208;5.488;2022-09-09T09:35:20;22.30;93.00
25440;DHT22;13365;52.208;5.488;2022-09-09T09:37:46;22.10;92.70
25440;DHT22;13365;52.208;5.488;2022-09-09T09:40:15;22.10;93.30
25440;DHT22;13365;52.208;5.488;2022-09-09T09:42:59;22.10;93.30
25440;DHT22;13365;52.208;5.488;2022-09-09T09:45:43;22.20;93.50
25440;DHT22;13365;52.208;5.488;2022-09-09T09:48:11;22.20;93.10
25440;DHT22;13365;52.208;5.488;2022-09-09T09:50:50;22.20;93.00
25440;DHT22;13365;52.208;5.488;2022-09-09T09:53:21;22.30;93.00
25440;DHT22;13365;52.208;5.488;2022-09-09T09:55:59;22.50;92.70
25440;DHT22;13365;52.208;5.488;2022-09-09T09:58:32;22.50;92.50
25440;DHT22;13365;52.208;5.488;2022-09-09T10:01:00;22.60;92.40
25440;DHT22;13365;52.208;5.488;2022-09-09T10:05:52;22.40;92.20
25440;DHT22;13365;52.208;5.488;2022-09-09T10:08:18;22.40;92.10
25440;DHT22;13365;52.208;5.488;2022-09-09T10:11:14;22.40;92.50
25440;DHT22;13365;52.208;5.488;2022-09-09T10:14:25;22.40;92.50
25440;DHT22;13365;52.208;5.488;2022-09-09T10:19:36;22.60;92.50
25440;DHT22;13365;52.208;5.488;2022-09-09T10:30:20;22.80;91.90
25440;DHT22;13365;52.208;5.488;2022-09-09T10:36:11;22.60;92.00
25440;DHT22;13365;52.208;5.488;2022-09-09T10:38:45;22.60;92.00
25440;DHT22;13365;52.208;5.488;2022-09-09T10:43:50;22.50;92.00
25440;DHT22;13365;52.208;5.488;2022-09-09T10:49:41;22.20;92.30
25440;DHT22;13365;52.208;5.488;2022-09-09T10:55:02;21.90;94.40
25440;DHT22;13365;52.208;5.488;2022-09-09T10:57:40;21.90;94.70
25440;DHT22;13365;52.208;5.488;2022-09-09T11:00:16;21.90;94.80
25440;DHT22;13365;52.208;5.488;2022-09-09T11:02:43;22.10;95.20
25440;DHT22;13365;52.208;5.488;2022-09-09T11:05:42;22.00;95.10
25440;DHT22;13365;52.208;5.488;2022-09-09T11:08:19;21.90;95.40
25440;DHT22;13365;52.208;5.488;2022-09-09T11:11:06;21.90;96.00
25440;DHT22;13365;52.208;5.488;2022-09-09T11:13:37;21.80;96.70
25440;DHT22;13365;52.208;5.488;2022-09-09T11:18:42;22.20;96.00
25440;DHT22;13365;52.208;5.488;2022-09-09T11:21:18;22.40;96.00
25440;DHT22;13365;52.208;5.488;2022-09-09T11:23:50;22.50;96.30
25440;DHT22;13365;52.208;5.488;2022-09-09T11:26:31;22.80;95.80
25440;DHT22;13365;52.208;5.488;2022-09-09T11:37:06;23.40;93.90
25440;DHT22;13365;52.208;5.488;2022-09-09T11:39:48;23.60;93.00
25440;DHT22;13365;52.208;5.488;2022-09-09T11:42:21;23.80;92.90
25440;DHT22;13365;52.208;5.488;2022-09-09T11:44:47;23.70;92.40
25440;DHT22;13365;52.208;5.488;2022-09-09T11:47:31;23.60;92.10
25440;DHT22;13365;52.208;5.488;2022-09-09T11:50:10;23.70;92.30
25440;DHT22;13365;52.208;5.488;2022-09-09T11:55:33;23.40;92.30
25440;DHT22;13365;52.208;5.488;2022-09-09T11:58:04;23.20;92.20
25440;DHT22;13365;52.208;5.488;2022-09-09T12:02:59;23.30;91.80
25440;DHT22;13365;52.208;5.488;2022-09-09T12:05:42;23.30;92.80
25440;DHT22;13365;52.208;5.488;2022-09-09T12:08:15;23.20;92.10
25440;DHT22;13365;52.208;5.488;2022-09-09T12:10:56;23.20;91.70
25440;DHT22;13365;52.208;5.488;2022-09-09T12:13:27;23.20;92.40
25440;DHT22;13365;52.208;5.488;2022-09-09T12:15:54;23.30;92.60
25440;DHT22;13365;52.208;5.488;2022-09-09T12:18:40;23.10;93.00
25440;DHT22;13365;52.208;5.488;2022-09-09T12:21:41;22.90;93.50
25440;DHT22;13365;52.208;5.488;2022-09-09T12:24:11;22.90;94.30
25440;DHT22;13365;52.208;5.488;2022-09-09T12:26:47;22.90;94.10
25440;DHT22;13365;52.208;5.488;2022-09-09T12:29:47;22.90;94.10
25440;DHT22;13365;52.208;5.488;2022-09-09T12:32:22;22.80;94.30
25440;DHT22;13365;52.208;5.488;2022-09-09T12:40:23;22.50;94.80
25440;DHT22;13365;52.208;5.488;2022-09-09T12:42:49;22.40;95.40
25440;DHT22;13365;52.208;5.488;2022-09-09T12:45:19;22.40;95.80
25440;DHT22;13365;52.208;5.488;2022-09-09T12:47:59;22.40;96.10
25440;DHT22;13365;52.208;5.488;2022-09-09T12:50:46;22.20;96.80
25440;DHT22;13365;52.208;5.488;2022-09-09T12:53:30;22.10;96.80
25440;DHT22;13365;52.208;5.488;2022-09-09T12:56:00;22.30;97.40
25440;DHT22;13365;52.208;5.488;2022-09-09T12:58:29;22.40;98.00
25440;DHT22;13365;52.208;5.488;2022-09-09T13:00:59;22.60;97.00
25440;DHT22;13365;52.208;5.488;2022-09-09T13:03:26;22.90;96.80
25440;DHT22;13365;52.208;5.488;2022-09-09T13:05:52;22.90;96.30
25440;DHT22;13365;52.208;5.488;2022-09-09T13:08:19;23.20;95.80
25440;DHT22;13365;52.208;5.488;2022-09-09T13:10:54;23.40;94.40
25440;DHT22;13365;52.208;5.488;2022-09-09T13:13:34;23.40;94.20
25440;DHT22;13365;52.208;5.488;2022-09-09T13:16:02;23.30;93.90
25440;DHT22;13365;52.208;5.488;2022-09-09T13:18:32;23.40;94.10
25440;DHT22;13365;52.208;5.488;2022-09-09T13:20:59;23.50;94.40
25440;DHT22;13365;52.208;5.488;2022-09-09T13:23:31;23.60;94.10
25440;DHT22;13365;52.208;5.488;2022-09-09T13:25:59;23.60;94.00
25440;DHT22;13365;52.208;5.488;2022-09-09T13:28:28;23.80;93.70
25440;DHT22;13365;52.208;5.488;2022-09-09T13:31:03;24.00;93.20
25440;DHT22;13365;52.208;5.488;2022-09-09T13:33:31;24.10;92.30
25440;DHT22;13365;52.208;5.488;2022-09-09T13:36:03;23.70;92.30
25440;DHT22;13365;52.208;5.488;2022-09-09T13:38:33;23.70;92.70
25440;DHT22;13365;52.208;5.488;2022-09-09T13:41:06;23.50;92.60
25440;DHT22;13365;52.208;5.488;2022-09-09T13:43:52;23.40;92.70
25440;DHT22;13365;52.208;5.488;2022-09-09T13:46:38;23.40;93.10
25440;DHT22;13365;52.208;5.488;2022-09-09T13:51:42;23.80;92.70
25440;DHT22;13365;52.208;5.488;2022-09-09T13:54:11;24.00;92.20
25440;DHT22;13365;52.208;5.488;2022-09-09T13:56:39;24.10;92.00
25440;DHT22;13365;52.208;5.488;2022-09-09T13:59:09;24.10;91.80
25440;DHT22;13365;52.208;5.488;2022-09-09T14:01:36;24.10;92.00
25440;DHT22;13365;52.208;5.488;2022-09-09T14:04:02;24.00;91.70
25440;DHT22;13365;52.208;5.488;2022-09-09T14:06:29;23.90;92.00
25440;DHT22;13365;52.208;5.488;2022-09-09T14:08:55;23.90;92.00
25440;DHT22;13365;52.208;5.488;2022-09-09T14:11:20;23.80;91.60
25440;DHT22;13365;52.208;5.488;2022-09-09T14:13:47;23.80;91.80
25440;DHT22;13365;52.208;5.488;2022-09-09T14:16:18;23.70;91.40
25440;DHT22;13365;52.208;5.488;2022-09-09T14:18:45;23.70;91.70
25440;DHT22;13365;52.208;5.488;2022-09-09T14:21:11;23.70;91.80
25440;DHT22;13365;52.208;5.488;2022-09-09T14:23:37;23.70;91.90
25440;DHT22;13365;52.208;5.488;2022-09-09T14:26:06;23.70;91.70
25440;DHT22;13365;52.208;5.488;2022-09-09T14:28:32;23.80;91.50
25440;DHT22;13365;52.208;5.488;2022-09-09T14:31:03;23.90;91.30
25440;DHT22;13365;52.208;5.488;2022-09-09T14:33:29;23.80;91.50
25440;DHT22;13365;52.208;5.488;2022-09-09T14:36:04;23.70;91.70
25440;DHT22;13365;52.208;5.488;2022-09-09T14:38:32;23.80;92.00
25440;DHT22;13365;52.208;5.488;2022-09-09T14:40:59;23.70;92.50
25440;DHT22;13365;52.208;5.488;2022-09-09T14:43:25;23.80;92.10
25440;DHT22;13365;52.208;5.488;2022-09-09T14:45:52;23.80;91.60
25440;DHT22;13365;52.208;5.488;2022-09-09T14:48:18;23.70;91.70
25440;DHT22;13365;52.208;5.488;2022-09-09T14:50:44;23.60;92.10
25440;DHT22;13365;52.208;5.488;2022-09-09T14:53:09;23.70;92.20
25440;DHT22;13365;52.208;5.488;2022-09-09T14:55:36;23.80;92.10
25440;DHT22;13365;52.208;5.488;2022-09-09T14:58:03;23.90;91.70
25440;DHT22;13365;52.208;5.488;2022-09-09T15:00:29;23.80;91.70
25440;DHT22;13365;52.208;5.488;2022-09-09T15:02:55;23.70;92.00
25440;DHT22;13365;52.208;5.488;2022-09-09T15:05:21;23.70;92.40
25440;DHT22;13365;52.208;5.488;2022-09-09T15:07:47;23.70;92.90
25440;DHT22;13365;52.208;5.488;2022-09-09T15:10:14;23.80;92.90
25440;DHT22;13365;52.208;5.488;2022-09-09T15:12:40;23.90;92.90
25440;DHT22;13365;52.208;5.488;2022-09-09T15:15:07;23.90;92.70
25440;DHT22;13365;52.208;5.488;2022-09-09T15:17:33;23.80;92.80
25440;DHT22;13365;52.208;5.488;2022-09-09T15:19:58;23.90;93.30
25440;DHT22;13365;52.208;5.488;2022-09-09T15:22:24;24.00;93.70
25440;DHT22;13365;52.208;5.488;2022-09-09T15:24:50;24.10;93.40
25440;DHT22;13365;52.208;5.488;2022-09-09T15:27:15;24.20;93.20
25440;DHT22;13365;52.208;5.488;2022-09-09T15:29:41;24.30;93.20
25440;DHT22;13365;52.208;5.488;2022-09-09T15:32:07;24.30;92.80
25440;DHT22;13365;52.208;5.488;2022-09-09T15:34:33;24.30;92.90
25440;DHT22;13365;52.208;5.488;2022-09-09T15:36:59;24.40;93.80
25440;DHT22;13365;52.208;5.488;2022-09-09T15:39:25;24.60;94.00
25440;DHT22;13365;52.208;5.488;2022-09-09T15:41:51;24.70;93.50
25440;DHT22;13365;52.208;5.488;2022-09-09T15:44:18;24.70;92.80
25440;DHT22;13365;52.208;5.488;2022-09-09T15:46:52;24.60;92.00
25440;DHT22;13365;52.208;5.488;2022-09-09T15:49:25;24.30;91.90
25440;DHT22;13365;52.208;5.488;2022-09-09T15:51:59;24.20;92.10
25440;DHT22;13365;52.208;5.488;2022-09-09T15:54:27;24.20;93.10
25440;DHT22;13365;52.208;5.488;2022-09-09T15:56:58;24.60;91.60
25440;DHT22;13365;52.208;5.488;2022-09-09T15:59:26;24.80;91.10
25440;DHT22;13365;52.208;5.488;2022-09-09T16:01:54;25.10;90.10
25440;DHT22;13365;52.208;5.488;2022-09-09T16:04:22;25.20;89.30
25440;DHT22;13365;52.208;5.488;2022-09-09T16:06:52;25.30;87.70
25440;DHT22;13365;52.208;5.488;2022-09-09T16:09:18;25.20;87.40
25440;DHT22;13365;52.208;5.488;2022-09-09T16:11:44;25.30;87.60
25440;DHT22;13365;52.208;5.488;2022-09-09T16:14:09;25.10;87.60
25440;DHT22;13365;52.208;5.488;2022-09-09T16:16:36;24.90;88.90
25440;DHT22;13365;52.208;5.488;2022-09-09T16:19:05;24.70;90.00
25440;DHT22;13365;52.208;5.488;2022-09-09T16:21:34;24.70;90.40
25440;DHT22;13365;52.208;5.488;2022-09-09T16:24:02;24.80;90.10
25440;DHT22;13365;52.208;5.488;2022-09-09T16:26:32;24.90;88.90
25440;DHT22;13365;52.208;5.488;2022-09-09T16:28:58;25.20;89.70
25440;DHT22;13365;52.208;5.488;2022-09-09T16:31:25;25.40;89.00
25440;DHT22;13365;52.208;5.488;2022-09-09T16:33:52;25.90;88.00
25440;DHT22;13365;52.208;5.488;2022-09-09T16:36:20;26.60;86.30
25440;DHT22;13365;52.208;5.488;2022-09-09T16:38:46;27.10;83.60
25440;DHT22;13365;52.208;5.488;2022-09-09T16:41:13;27.50;79.50
25440;DHT22;13365;52.208;5.488;2022-09-09T16:43:40;27.50;79.00
25440;DHT22;13365;52.208;5.488;2022-09-09T16:46:16;27.30;78.90
25440;DHT22;13365;52.208;5.488;2022-09-09T16:48:44;26.90;79.30
25440;DHT22;13365;52.208;5.488;2022-09-09T16:51:22;26.20;80.80
25440;DHT22;13365;52.208;5.488;2022-09-09T16:53:51;25.90;82.20
25440;DHT22;13365;52.208;5.488;2022-09-09T16:56:22;25.50;82.70
25440;DHT22;13365;52.208;5.488;2022-09-09T16:58:54;25.30;83.10
25440;DHT22;13365;52.208;5.488;2022-09-09T17:01:22;24.80;84.50
25440;DHT22;13365;52.208;5.488;2022-09-09T17:03:51;24.50;86.10
25440;DHT22;13365;52.208;5.488;2022-09-09T17:06:17;24.30;87.00
25440;DHT22;13365;52.208;5.488;2022-09-09T17:08:42;24.20;87.20
25440;DHT22;13365;52.208;5.488;2022-09-09T17:11:15;23.80;88.20
25440;DHT22;13365;52.208;5.488;2022-09-09T17:13:42;23.60;89.20
25440;DHT22;13365;52.208;5.488;2022-09-09T17:16:10;23.50;90.00
25440;DHT22;13365;52.208;5.488;2022-09-09T17:18:37;23.80;90.10
25440;DHT22;13365;52.208;5.488;2022-09-09T17:21:05;23.90;89.90